createdAt,value
2022-08-07T00:00:44.322Z,12.8
2022-08-07T00:02:00.633Z,12.8
2022-08-07T00:03:16.922Z,12.9
2022-08-07T00:04:33.203Z,12.9
2022-08-07T00:05:49.496Z,12.9
2022-08-07T00:07:05.792Z,12.9
2022-08-07T00:08:22.093Z,12.8
2022-08-07T00:09:38.378Z,12.8
2022-08-07T00:10:54.662Z,12.8
2022-08-07T00:12:10.965Z,12.8
2022-08-07T00:13:26.265Z,12.8
2022-08-07T00:14:42.556Z,12.7
2022-08-07T00:15:58.854Z,12.7
2022-08-07T00:17:15.146Z,12.6
2022-08-07T00:18:31.439Z,12.5
2022-08-07T00:19:47.738Z,12.4
2022-08-07T00:21:04.043Z,12.3
2022-08-07T00:22:20.312Z,12.3
2022-08-07T00:23:36.602Z,12.2
2022-08-07T00:24:52.904Z,12.2
2022-08-07T00:26:09.201Z,12.2
2022-08-07T00:27:25.503Z,12.2
2022-08-07T00:28:41.783Z,12.2
2022-08-07T00:29:57.087Z,12.2
2022-08-07T00:31:13.380Z,12.1
2022-08-07T00:32:29.679Z,12.1
2022-08-07T00:33:45.961Z,12
2022-08-07T00:35:02.257Z,12
2022-08-07T00:36:18.556Z,11.9
2022-08-07T00:37:34.839Z,11.9
2022-08-07T00:38:51.131Z,11.9
2022-08-07T00:40:07.437Z,11.8
2022-08-07T00:41:23.729Z,11.8
2022-08-07T00:42:40.008Z,11.8
2022-08-07T00:43:56.310Z,11.9
2022-08-07T00:45:12.613Z,12
2022-08-07T00:46:27.916Z,12.1
2022-08-07T00:47:44.207Z,12.1
2022-08-07T00:49:00.488Z,12.2
2022-08-07T00:50:16.801Z,12.2
2022-08-07T00:51:33.095Z,12.2
2022-08-07T00:52:49.380Z,12.2
2022-08-07T00:54:05.686Z,12.1
2022-08-07T00:55:21.961Z,12.1
2022-08-07T00:56:38.255Z,12
2022-08-07T00:57:54.554Z,12
2022-08-07T00:59:10.837Z,11.9
2022-08-07T01:00:27.124Z,11.9
2022-08-07T01:01:43.419Z,11.8
2022-08-07T01:02:58.737Z,11.8
2022-08-07T01:04:15.039Z,11.7
2022-08-07T01:05:31.332Z,11.7
2022-08-07T01:06:47.611Z,11.7
2022-08-07T01:08:03.908Z,11.6
2022-08-07T01:09:20.190Z,11.6
2022-08-07T01:10:35.501Z,11.6
2022-08-07T01:11:51.805Z,11.5
2022-08-07T01:13:08.094Z,11.6
2022-08-07T01:14:24.392Z,11.5
2022-08-07T01:15:40.688Z,11.4
2022-08-07T01:16:56.967Z,11.4
2022-08-07T01:18:13.263Z,11.4
2022-08-07T01:19:29.561Z,11.4
2022-08-07T01:20:45.846Z,11.4
2022-08-07T01:22:02.140Z,11.5
2022-08-07T01:23:18.439Z,11.6
2022-08-07T01:24:34.721Z,11.7
2022-08-07T01:25:51.029Z,11.7
2022-08-07T01:27:06.322Z,11.8
2022-08-07T01:28:22.628Z,11.8
2022-08-07T01:29:38.915Z,11.8
2022-08-07T01:30:55.208Z,11.8
2022-08-07T01:32:11.490Z,11.8
2022-08-07T01:33:27.803Z,11.8
2022-08-07T01:34:44.089Z,11.7
2022-08-07T01:36:00.373Z,11.7
2022-08-07T01:37:16.664Z,11.7
2022-08-07T01:38:32.968Z,11.7
2022-08-07T01:39:49.268Z,11.7
2022-08-07T01:41:05.553Z,11.7
2022-08-07T01:42:21.844Z,11.7
2022-08-07T01:43:37.160Z,11.7
2022-08-07T01:44:53.433Z,11.7
2022-08-07T01:46:09.729Z,11.7
2022-08-07T01:47:26.019Z,11.6
2022-08-07T01:48:42.323Z,11.6
2022-08-07T01:49:58.625Z,11.6
2022-08-07T01:51:14.911Z,11.6
2022-08-07T01:52:31.203Z,11.7
2022-08-07T01:53:47.501Z,11.7
2022-08-07T01:55:03.803Z,11.8
2022-08-07T01:56:20.077Z,11.8
2022-08-07T01:57:36.374Z,11.8
2022-08-07T01:58:52.656Z,11.7
2022-08-07T02:00:07.978Z,11.5
2022-08-07T02:01:24.269Z,11.5
2022-08-07T02:02:40.566Z,11.5
2022-08-07T02:03:56.844Z,11.4
2022-08-07T02:05:13.140Z,11.4
2022-08-07T02:06:29.441Z,11.4
2022-08-07T02:07:45.740Z,11.4
2022-08-07T02:09:02.028Z,11.4
2022-08-07T02:10:18.313Z,11.4
2022-08-07T02:11:34.606Z,11.4
2022-08-07T02:12:50.908Z,11.5
2022-08-07T02:14:07.196Z,11.5
2022-08-07T02:15:23.495Z,11.5
2022-08-07T02:16:38.795Z,11.5
2022-08-07T02:17:55.091Z,11.4
2022-08-07T02:19:11.370Z,11.4
2022-08-07T02:20:27.689Z,11.4
2022-08-07T02:21:43.961Z,11.4
2022-08-07T02:23:00.265Z,11.3
2022-08-07T02:24:16.544Z,11.4
2022-08-07T02:25:32.854Z,11.3
2022-08-07T02:26:49.135Z,11.3
2022-08-07T02:28:05.438Z,11.4
2022-08-07T02:29:21.719Z,11.4
2022-08-07T02:30:38.028Z,11.5
2022-08-07T02:31:54.306Z,11.5
2022-08-07T02:33:09.638Z,11.6
2022-08-07T02:34:25.919Z,11.6
2022-08-07T02:35:42.197Z,11.7
2022-08-07T02:36:58.501Z,11.7
2022-08-07T02:38:14.785Z,11.7
2022-08-07T02:39:31.087Z,11.7
2022-08-07T02:40:47.384Z,11.6
2022-08-07T02:42:03.672Z,11.5
2022-08-07T02:43:19.965Z,11.5
2022-08-07T02:44:36.243Z,11.5
2022-08-07T02:45:52.557Z,11.5
2022-08-07T02:47:08.846Z,11.5
2022-08-07T02:48:25.132Z,11.5
2022-08-07T02:49:40.450Z,11.5
2022-08-07T02:52:13.032Z,11.5
2022-08-07T02:53:29.314Z,11.4
2022-08-07T02:54:45.621Z,11.4
2022-08-07T02:56:01.910Z,11.4
2022-08-07T02:57:18.206Z,11.3
2022-08-07T02:58:34.494Z,11.3
2022-08-07T02:59:50.793Z,11.3
2022-08-07T03:01:07.078Z,11.3
2022-08-07T03:02:23.368Z,11.3
2022-08-07T03:03:39.661Z,11.3
2022-08-07T03:04:55.965Z,11.4
2022-08-07T03:06:11.275Z,11.4
2022-08-07T03:07:27.510Z,11.4
2022-08-07T03:08:43.816Z,11.3
2022-08-07T03:10:00.094Z,11.3
2022-08-07T03:11:16.334Z,11.2
2022-08-07T03:12:32.586Z,11.2
2022-08-07T03:13:48.876Z,11.1
2022-08-07T03:15:05.166Z,11
2022-08-07T03:16:21.457Z,11
2022-08-07T03:17:37.712Z,11
2022-08-07T03:18:53.945Z,11
2022-08-07T03:20:10.244Z,11
2022-08-07T03:21:26.534Z,11
2022-08-07T03:22:41.790Z,11
2022-08-07T03:23:58.031Z,11
2022-08-07T03:25:14.271Z,10.9
2022-08-07T03:26:30.515Z,11
2022-08-07T03:27:46.764Z,11
2022-08-07T03:29:02.993Z,11.1
2022-08-07T03:30:19.242Z,11.1
2022-08-07T03:31:35.470Z,11.2
2022-08-07T03:32:51.709Z,11.2
2022-08-07T03:34:07.940Z,11.3
2022-08-07T03:35:24.193Z,11.3
2022-08-07T03:36:40.431Z,11.3
2022-08-07T03:37:56.665Z,11.3
2022-08-07T03:39:11.915Z,11.3
2022-08-07T03:40:28.159Z,11.3
2022-08-07T03:41:44.392Z,11.3
2022-08-07T03:43:00.636Z,11.2
2022-08-07T03:44:16.892Z,11.2
2022-08-07T03:45:33.114Z,11.2
2022-08-07T03:46:49.361Z,11.2
2022-08-07T03:48:05.602Z,11.2
2022-08-07T03:49:21.850Z,11.2
2022-08-07T03:50:38.070Z,11.1
2022-08-07T03:51:54.308Z,11.1
2022-08-07T03:53:10.551Z,11.1
2022-08-07T03:54:26.805Z,11
2022-08-07T03:55:42.042Z,11.1
2022-08-07T03:56:58.284Z,11.1
2022-08-07T03:58:14.525Z,11.1
2022-08-07T03:59:30.766Z,11
2022-08-07T04:00:47.008Z,11.1
2022-08-07T04:02:03.248Z,11.1
2022-08-07T04:03:19.489Z,11
2022-08-07T04:04:35.714Z,11
2022-08-07T04:05:51.960Z,11
2022-08-07T04:07:08.199Z,11
2022-08-07T04:08:24.435Z,11
2022-08-07T04:09:40.684Z,11
2022-08-07T04:10:56.910Z,11
2022-08-07T04:12:12.165Z,11
2022-08-07T04:13:28.403Z,11
2022-08-07T04:14:44.646Z,11
2022-08-07T04:16:00.906Z,11
2022-08-07T04:17:17.129Z,11
2022-08-07T04:18:33.370Z,11
2022-08-07T04:19:49.605Z,11
2022-08-07T04:21:05.847Z,11
2022-08-07T04:22:22.101Z,11.1
2022-08-07T04:23:38.326Z,11
2022-08-07T04:24:54.572Z,11.1
2022-08-07T04:26:10.800Z,11.1
2022-08-07T04:27:27.047Z,11.1
2022-08-07T04:28:42.293Z,11.1
2022-08-07T04:29:58.556Z,11.2
2022-08-07T04:31:14.785Z,11.2
2022-08-07T04:32:31.008Z,11.2
2022-08-07T04:33:47.262Z,11.3
2022-08-07T04:35:03.510Z,11.3
2022-08-07T04:36:19.732Z,11.3
2022-08-07T04:37:35.975Z,11.3
2022-08-07T04:38:52.212Z,11.4
2022-08-07T04:40:08.451Z,11.4
2022-08-07T04:41:24.696Z,11.4
2022-08-07T04:42:40.947Z,11.4
2022-08-07T04:43:57.171Z,11.4
2022-08-07T04:45:12.428Z,11.5
2022-08-07T04:46:28.675Z,11.5
2022-08-07T04:47:44.911Z,11.5
2022-08-07T04:49:01.135Z,11.6
2022-08-07T04:50:17.387Z,11.6
2022-08-07T04:51:33.619Z,11.6
2022-08-07T04:52:49.867Z,11.6
2022-08-07T04:54:06.099Z,11.6
2022-08-07T04:55:22.344Z,11.7
2022-08-07T04:56:38.587Z,11.7
2022-08-07T04:57:54.820Z,11.7
2022-08-07T04:59:11.056Z,11.7
2022-08-07T05:00:27.307Z,11.7
2022-08-07T05:01:42.555Z,11.8
2022-08-07T05:02:58.806Z,11.8
2022-08-07T05:04:15.040Z,11.8
2022-08-07T05:05:31.278Z,11.8
2022-08-07T05:06:47.515Z,11.8
2022-08-07T05:08:03.760Z,11.8
2022-08-07T05:09:19.994Z,11.9
2022-08-07T05:10:36.226Z,11.9
2022-08-07T05:11:52.468Z,12
2022-08-07T05:13:08.710Z,12
2022-08-07T05:14:24.952Z,12
2022-08-07T05:15:41.176Z,12.1
2022-08-07T05:16:57.444Z,12.1
2022-08-07T05:18:12.673Z,12.1
2022-08-07T05:19:28.920Z,12.2
2022-08-07T05:20:45.156Z,12.2
2022-08-07T05:22:01.392Z,12.3
2022-08-07T05:23:17.632Z,12.3
2022-08-07T05:24:33.878Z,12.4
2022-08-07T05:25:49.129Z,12.4
2022-08-07T05:27:05.382Z,12.5
2022-08-07T05:28:21.619Z,12.5
2022-08-07T05:29:37.858Z,12.6
2022-08-07T05:30:54.104Z,12.6
2022-08-07T05:32:10.343Z,12.7
2022-08-07T05:33:26.576Z,12.8
2022-08-07T05:34:42.818Z,12.9
2022-08-07T05:35:59.056Z,12.9
2022-08-07T05:37:15.298Z,13
2022-08-07T05:38:31.531Z,13
2022-08-07T05:39:47.771Z,13.1
2022-08-07T05:41:04.019Z,13.1
2022-08-07T05:42:19.262Z,13.2
2022-08-07T05:43:35.492Z,13.2
2022-08-07T05:44:51.751Z,13.2
2022-08-07T05:46:07.993Z,13.3
2022-08-07T05:47:24.221Z,13.3
2022-08-07T05:48:40.460Z,13.4
2022-08-07T05:49:56.690Z,13.4
2022-08-07T05:52:29.171Z,13.5
2022-08-07T05:53:45.406Z,13.6
2022-08-07T05:55:01.657Z,13.6
2022-08-07T05:56:17.895Z,13.8
2022-08-07T05:57:34.133Z,13.8
2022-08-07T05:58:49.389Z,13.9
2022-08-07T06:00:05.620Z,14
2022-08-07T06:01:21.864Z,14.1
2022-08-07T06:02:38.090Z,14.1
2022-08-07T06:03:54.335Z,14.2
2022-08-07T06:05:10.579Z,14.3
2022-08-07T06:06:26.831Z,14.4
2022-08-07T06:07:43.060Z,14.4
2022-08-07T06:08:59.300Z,14.5
2022-08-07T06:10:15.557Z,14.5
2022-08-07T06:11:31.778Z,14.6
2022-08-07T06:12:48.016Z,14.6
2022-08-07T06:14:04.241Z,14.7
2022-08-07T06:15:19.518Z,14.8
2022-08-07T06:16:35.733Z,14.8
2022-08-07T06:17:51.997Z,14.9
2022-08-07T06:19:08.224Z,14.9
2022-08-07T06:20:24.468Z,14.9
2022-08-07T06:21:40.700Z,14.9
2022-08-07T06:22:56.941Z,15
2022-08-07T06:24:13.165Z,15.1
2022-08-07T06:25:29.422Z,15.1
2022-08-07T06:26:45.656Z,15.2
2022-08-07T06:28:01.885Z,15.3
2022-08-07T06:30:34.359Z,15.4
2022-08-07T06:31:49.628Z,15.5
2022-08-07T06:33:05.857Z,15.5
2022-08-07T06:34:22.104Z,15.6
2022-08-07T06:35:38.333Z,15.7
2022-08-07T06:36:54.583Z,15.7
2022-08-07T06:38:10.810Z,15.7
2022-08-07T06:39:27.051Z,15.8
2022-08-07T06:40:43.287Z,15.9
2022-08-07T06:41:59.540Z,16
2022-08-07T06:43:15.775Z,16.1
2022-08-07T06:44:32.025Z,16.2
2022-08-07T06:45:48.238Z,16.2
2022-08-07T06:47:04.490Z,16.3
2022-08-07T06:48:19.746Z,16.4
2022-08-07T06:49:35.994Z,16.5
2022-08-07T06:50:52.220Z,16.6
2022-08-07T06:52:08.466Z,16.7
2022-08-07T06:53:24.689Z,16.7
2022-08-07T06:54:40.934Z,16.9
2022-08-07T06:55:57.178Z,16.9
2022-08-07T06:57:13.407Z,17
2022-08-07T06:58:29.649Z,17.1
2022-08-07T06:59:45.888Z,17.1
2022-08-07T07:01:02.123Z,17.2
2022-08-07T07:02:18.372Z,17.3
2022-08-07T07:03:34.610Z,17.3
2022-08-07T07:04:49.871Z,17.3
2022-08-07T07:06:06.092Z,17.4
2022-08-07T07:07:22.344Z,17.4
2022-08-07T07:08:38.587Z,17.5
2022-08-07T07:09:54.827Z,17.6
2022-08-07T07:11:11.067Z,17.6
2022-08-07T07:12:27.284Z,17.7
2022-08-07T07:13:43.523Z,17.7
2022-08-07T07:14:59.789Z,17.8
2022-08-07T07:16:16.028Z,17.9
2022-08-07T07:17:32.246Z,17.9
2022-08-07T07:18:48.489Z,17.9
2022-08-07T07:20:04.728Z,18
2022-08-07T07:21:19.986Z,18
2022-08-07T07:22:36.228Z,18
2022-08-07T07:23:52.473Z,18.1
2022-08-07T07:25:08.707Z,18.1
2022-08-07T07:26:24.929Z,18.2
2022-08-07T07:27:41.181Z,18.3
2022-08-07T07:28:57.420Z,18.4
2022-08-07T07:30:13.655Z,18.5
2022-08-07T07:31:29.887Z,18.6
2022-08-07T07:32:46.126Z,18.7
2022-08-07T07:34:02.363Z,18.8
2022-08-07T07:35:18.606Z,18.9
2022-08-07T07:36:34.847Z,18.9
2022-08-07T07:37:50.099Z,19
2022-08-07T07:39:06.343Z,19.1
2022-08-07T07:40:22.581Z,19.2
2022-08-07T07:41:38.814Z,19.2
2022-08-07T07:42:55.064Z,19.3
2022-08-07T07:44:11.304Z,19.4
2022-08-07T07:45:27.543Z,19.4
2022-08-07T07:46:43.775Z,19.5
2022-08-07T07:48:00.008Z,19.6
2022-08-07T07:49:16.267Z,19.7
2022-08-07T07:50:32.490Z,19.8
2022-08-07T07:51:48.731Z,19.9
2022-08-07T07:53:04.979Z,20
2022-08-07T07:54:20.227Z,20.1
2022-08-07T07:55:36.466Z,20.1
2022-08-07T07:56:52.717Z,20.1
2022-08-07T07:58:08.966Z,20.2
2022-08-07T07:59:25.183Z,20.2
2022-08-07T08:00:41.421Z,20.3
2022-08-07T08:01:57.662Z,20.3
2022-08-07T08:03:13.916Z,20.5
2022-08-07T08:04:30.143Z,20.6
2022-08-07T08:05:46.396Z,20.6
2022-08-07T08:07:02.624Z,20.7
2022-08-07T08:08:18.865Z,20.7
2022-08-07T08:09:35.102Z,20.7
2022-08-07T08:10:50.352Z,20.7
2022-08-07T08:12:06.000Z,20.8
2022-08-07T08:13:22.833Z,20.8
2022-08-07T08:14:39.071Z,20.8
2022-08-07T08:15:55.329Z,20.8
2022-08-07T08:17:11.563Z,20.9
2022-08-07T08:18:27.795Z,21
2022-08-07T08:19:44.040Z,21
2022-08-07T08:21:00.281Z,21.1
2022-08-07T08:22:16.527Z,21.1
2022-08-07T08:23:32.772Z,21.1
2022-08-07T08:24:49.019Z,21
2022-08-07T08:26:05.248Z,21
2022-08-07T08:27:20.505Z,21
2022-08-07T08:28:36.738Z,21.1
2022-08-07T08:29:52.976Z,21.2
2022-08-07T08:31:09.225Z,21.3
2022-08-07T08:32:25.445Z,21.4
2022-08-07T08:33:41.700Z,21.5
2022-08-07T08:34:57.950Z,21.5
2022-08-07T08:36:14.180Z,21.6
2022-08-07T08:37:30.424Z,21.5
2022-08-07T08:38:46.647Z,21.6
2022-08-07T08:40:02.895Z,21.5
2022-08-07T08:41:19.129Z,21.5
2022-08-07T08:42:35.371Z,21.5
2022-08-07T08:43:50.631Z,21.6
2022-08-07T08:45:06.871Z,21.6
2022-08-07T08:46:23.104Z,21.7
2022-08-07T08:47:39.348Z,21.7
2022-08-07T08:48:55.590Z,21.9
2022-08-07T08:50:11.836Z,21.9
2022-08-07T08:51:28.061Z,22
2022-08-07T08:52:44.306Z,21.8
2022-08-07T08:54:00.541Z,21.7
2022-08-07T08:55:16.786Z,21.7
2022-08-07T08:56:33.028Z,21.8
2022-08-07T08:57:49.262Z,21.9
2022-08-07T08:59:05.516Z,22.1
2022-08-07T09:00:20.772Z,22.2
2022-08-07T09:01:37.016Z,22.2
2022-08-07T09:02:53.249Z,22.2
2022-08-07T09:04:09.494Z,22.1
2022-08-07T09:05:25.726Z,22
2022-08-07T09:06:41.974Z,22
2022-08-07T09:07:58.213Z,22
2022-08-07T09:09:14.449Z,22.1
2022-08-07T09:10:30.693Z,22.2
2022-08-07T09:11:46.922Z,22.2
2022-08-07T09:13:03.162Z,22
2022-08-07T09:14:19.415Z,21.9
2022-08-07T09:15:35.650Z,21.8
2022-08-07T09:16:50.919Z,21.7
2022-08-07T09:18:07.143Z,21.7
2022-08-07T09:19:23.382Z,21.8
2022-08-07T09:20:39.626Z,22
2022-08-07T09:21:55.876Z,22.1
2022-08-07T09:23:12.104Z,22.2
2022-08-07T09:24:28.351Z,22.3
2022-08-07T09:25:44.581Z,22.2
2022-08-07T09:27:00.823Z,22.2
2022-08-07T09:28:17.067Z,22.2
2022-08-07T09:29:33.303Z,22.1
2022-08-07T09:30:49.550Z,22
2022-08-07T09:32:05.797Z,22
2022-08-07T09:33:21.038Z,22.1
2022-08-07T09:34:37.295Z,22.2
2022-08-07T09:35:53.522Z,22.3
2022-08-07T09:37:09.763Z,22.4
2022-08-07T09:38:25.998Z,22.5
2022-08-07T09:39:42.255Z,22.7
2022-08-07T09:40:57.508Z,22.9
2022-08-07T09:42:13.754Z,23.1
2022-08-07T09:43:29.987Z,23.3
2022-08-07T09:44:46.239Z,23.5
2022-08-07T09:46:02.467Z,23.7
2022-08-07T09:47:18.717Z,23.8
2022-08-07T09:48:34.961Z,23.9
2022-08-07T09:49:51.190Z,24
2022-08-07T09:51:07.433Z,24.1
2022-08-07T09:52:23.676Z,24.2
2022-08-07T09:53:39.925Z,24.2
2022-08-07T09:54:56.164Z,24.2
2022-08-07T09:56:12.394Z,24.1
2022-08-07T09:57:27.656Z,24.1
2022-08-07T09:58:43.901Z,24.1
2022-08-07T10:00:00.123Z,24
2022-08-07T10:01:16.366Z,23.4
2022-08-07T10:02:32.616Z,23.2
2022-08-07T10:03:48.848Z,23
2022-08-07T10:05:05.082Z,23.1
2022-08-07T10:06:21.327Z,23.1
2022-08-07T10:07:37.560Z,23.2
2022-08-07T10:08:53.805Z,23.3
2022-08-07T10:10:10.053Z,23.5
2022-08-07T10:11:26.289Z,23.7
2022-08-07T10:12:42.529Z,24
2022-08-07T10:13:57.785Z,24.3
2022-08-07T10:15:14.027Z,24.4
2022-08-07T10:16:30.259Z,24.6
2022-08-07T10:17:46.509Z,24.7
2022-08-07T10:19:02.740Z,24.7
2022-08-07T10:20:18.983Z,24.9
2022-08-07T10:21:35.226Z,24.8
2022-08-07T10:22:51.466Z,24.7
2022-08-07T10:24:07.691Z,24.7
2022-08-07T10:25:23.932Z,24.5
2022-08-07T10:26:40.177Z,24.4
2022-08-07T10:27:56.422Z,24.4
2022-08-07T10:29:12.651Z,24.6
2022-08-07T10:30:27.920Z,24.8
2022-08-07T10:31:44.160Z,25
2022-08-07T10:33:00.384Z,25.3
2022-08-07T10:34:16.624Z,25.5
2022-08-07T10:35:32.861Z,25.7
2022-08-07T10:36:49.115Z,25.9
2022-08-07T10:38:05.345Z,26
2022-08-07T10:39:21.584Z,26
2022-08-07T10:40:37.834Z,25.9
2022-08-07T10:41:54.070Z,25.9
2022-08-07T10:43:10.304Z,26.1
2022-08-07T10:44:26.535Z,26.1
2022-08-07T10:45:42.794Z,26.2
2022-08-07T10:46:58.050Z,26.4
2022-08-07T10:48:14.283Z,26.6
2022-08-07T10:49:30.517Z,27
2022-08-07T10:50:46.765Z,27.2
2022-08-07T10:52:03.000Z,27.3
2022-08-07T10:53:19.236Z,27.2
2022-08-07T10:54:35.465Z,27.1
2022-08-07T10:55:51.709Z,27.1
2022-08-07T10:57:07.946Z,26.9
2022-08-07T10:58:24.183Z,26.5
2022-08-07T10:59:40.424Z,26.6
2022-08-07T11:00:56.666Z,26.9
2022-08-07T11:02:12.904Z,27
2022-08-07T11:03:28.161Z,26.6
2022-08-07T11:04:44.387Z,26.7
2022-08-07T11:06:00.629Z,26.7
2022-08-07T11:07:16.879Z,26.7
2022-08-07T11:08:33.103Z,26.8
2022-08-07T11:09:49.343Z,27
2022-08-07T11:11:05.581Z,27.1
2022-08-07T11:12:21.824Z,27.1
2022-08-07T11:13:38.072Z,27.1
2022-08-07T11:14:54.304Z,27.2
2022-08-07T11:16:10.542Z,27.4
2022-08-07T11:17:26.773Z,27.5
2022-08-07T11:18:43.012Z,27.4
2022-08-07T11:19:58.266Z,27.3
2022-08-07T11:21:14.516Z,27.4
2022-08-07T11:22:30.749Z,27.4
2022-08-07T11:23:46.986Z,27.2
2022-08-07T11:25:03.223Z,26.7
2022-08-07T11:26:19.463Z,26.8
2022-08-07T11:27:35.700Z,27
2022-08-07T11:28:51.948Z,27.3
2022-08-07T11:30:08.179Z,27.3
2022-08-07T11:31:24.420Z,27.5
2022-08-07T11:32:40.653Z,27.6
2022-08-07T11:33:56.893Z,27.8
2022-08-07T11:35:13.127Z,28.1
2022-08-07T11:36:28.399Z,28.1
2022-08-07T11:37:44.625Z,28.1
2022-08-07T11:39:00.867Z,28.1
2022-08-07T11:40:17.103Z,28.2
2022-08-07T11:41:33.350Z,28
2022-08-07T11:42:49.581Z,27.9
2022-08-07T11:44:05.815Z,27.8
2022-08-07T11:45:22.055Z,27.8
2022-08-07T11:46:38.308Z,27.7
2022-08-07T11:47:54.536Z,27.6
2022-08-07T11:49:10.775Z,27.5
2022-08-07T11:50:27.017Z,27.1
2022-08-07T11:51:43.265Z,27.1
2022-08-07T11:52:58.519Z,26.9
2022-08-07T11:54:14.761Z,26.4
2022-08-07T11:55:30.993Z,25.7
2022-08-07T11:56:47.223Z,25.8
2022-08-07T11:58:03.469Z,26.1
2022-08-07T11:59:19.707Z,26.6
2022-08-07T12:00:35.951Z,27.1
2022-08-07T12:01:52.183Z,27.6
2022-08-07T12:03:08.419Z,27.9
2022-08-07T12:04:24.663Z,28
2022-08-07T12:05:40.900Z,27.5
2022-08-07T12:06:57.149Z,27.2
2022-08-07T12:08:13.373Z,27.1
2022-08-07T12:09:28.635Z,27.3
2022-08-07T12:10:44.883Z,27.6
2022-08-07T12:12:01.109Z,28
2022-08-07T12:13:17.345Z,28.2
2022-08-07T12:14:33.593Z,27.9
2022-08-07T12:15:49.832Z,27.5
2022-08-07T12:17:06.073Z,27.7
2022-08-07T12:18:22.312Z,27.8
2022-08-07T12:19:38.553Z,28
2022-08-07T12:20:54.797Z,28.2
2022-08-07T12:22:11.018Z,28.4
2022-08-07T12:23:27.262Z,28.6
2022-08-07T12:24:43.500Z,28.8
2022-08-07T12:25:58.760Z,29.1
2022-08-07T12:27:15.006Z,29.2
2022-08-07T12:28:31.233Z,29.4
2022-08-07T12:29:47.482Z,29
2022-08-07T12:31:03.718Z,28.7
2022-08-07T12:32:19.959Z,28.7
2022-08-07T12:33:36.206Z,28.9
2022-08-07T12:34:52.439Z,29
2022-08-07T12:36:08.672Z,29.2
2022-08-07T12:37:24.908Z,29
2022-08-07T12:38:41.160Z,28.9
2022-08-07T12:39:57.389Z,29.1
2022-08-07T12:41:13.637Z,29
2022-08-07T12:42:28.889Z,29.1
2022-08-07T12:43:45.127Z,29.3
2022-08-07T12:45:01.364Z,29.4
2022-08-07T12:46:17.607Z,29.5
2022-08-07T12:47:33.849Z,29.1
2022-08-07T12:48:50.087Z,28.9
2022-08-07T12:50:06.335Z,28.3
2022-08-07T12:51:22.580Z,28.3
2022-08-07T12:52:38.812Z,28
2022-08-07T12:53:55.039Z,28.1
2022-08-07T12:55:11.284Z,27.9
2022-08-07T12:56:27.529Z,27.8
2022-08-07T12:57:43.767Z,28
2022-08-07T12:58:59.016Z,28.4
2022-08-07T13:00:15.265Z,28.5
2022-08-07T13:01:31.506Z,28.6
2022-08-07T13:02:47.735Z,28.4
2022-08-07T13:04:03.991Z,27.8
2022-08-07T13:05:20.231Z,27.6
2022-08-07T13:06:36.458Z,27.7
2022-08-07T13:07:52.704Z,28
2022-08-07T13:09:08.938Z,28.5
2022-08-07T13:10:25.189Z,28.6
2022-08-07T13:11:41.431Z,28.9
2022-08-07T13:12:57.658Z,29
2022-08-07T13:14:13.894Z,29.1
2022-08-07T13:15:29.148Z,29.1
2022-08-07T13:16:45.393Z,29.1
2022-08-07T13:18:01.636Z,29.1
2022-08-07T13:19:17.868Z,29.3
2022-08-07T13:20:34.111Z,29.5
2022-08-07T13:21:50.359Z,29.7
2022-08-07T13:23:06.596Z,30.1
2022-08-07T13:24:22.843Z,30.3
2022-08-07T13:25:39.074Z,30.2
2022-08-07T13:26:55.311Z,30.3
2022-08-07T13:28:11.549Z,30
2022-08-07T13:29:27.797Z,29.7
2022-08-07T13:30:44.027Z,29
2022-08-07T13:31:59.284Z,29
2022-08-07T13:33:15.530Z,29.1
2022-08-07T13:34:31.777Z,29.4
2022-08-07T13:35:48.004Z,29.4
2022-08-07T13:37:04.247Z,28.8
2022-08-07T13:38:20.490Z,28.8
2022-08-07T13:39:36.724Z,29.1
2022-08-07T13:40:52.967Z,29.4
2022-08-07T13:42:09.204Z,29.7
2022-08-07T13:43:25.455Z,30
2022-08-07T13:44:41.694Z,30.1
2022-08-07T13:45:57.935Z,30.1
2022-08-07T13:47:14.165Z,30.1
2022-08-07T13:48:29.422Z,30.3
2022-08-07T13:49:45.669Z,30.5
2022-08-07T13:51:01.905Z,30.1
2022-08-07T13:52:18.149Z,29.6
2022-08-07T13:53:34.384Z,29.3
2022-08-07T13:54:50.635Z,29.1
2022-08-07T13:56:05.887Z,29.1
2022-08-07T13:57:22.132Z,29.4
2022-08-07T13:58:38.378Z,29.4
2022-08-07T13:59:54.618Z,29.4
2022-08-07T14:01:10.852Z,29.4
2022-08-07T14:02:27.092Z,29.7
2022-08-07T14:03:43.347Z,29.9
2022-08-07T14:04:59.568Z,30
2022-08-07T14:06:15.823Z,30
2022-08-07T14:07:32.046Z,30
2022-08-07T14:08:48.296Z,29.9
2022-08-07T14:10:04.535Z,30
2022-08-07T14:11:20.768Z,30
2022-08-07T14:12:36.036Z,30
2022-08-07T14:13:52.270Z,29.3
2022-08-07T14:15:08.503Z,29.1
2022-08-07T14:16:24.744Z,29.2
2022-08-07T14:17:40.997Z,29.6
2022-08-07T14:18:57.220Z,30
2022-08-07T14:20:13.459Z,30.2
2022-08-07T14:21:29.714Z,30.2
2022-08-07T14:22:45.940Z,30.5
2022-08-07T14:24:02.184Z,30.8
2022-08-07T14:25:18.424Z,31.1
2022-08-07T14:26:34.680Z,31.2
2022-08-07T14:27:50.917Z,31.4
2022-08-07T14:29:06.156Z,31.5
2022-08-07T14:30:22.406Z,31.3
2022-08-07T14:31:38.638Z,30.9
2022-08-07T14:32:54.893Z,30.3
2022-08-07T14:34:11.126Z,30.2
2022-08-07T14:35:27.370Z,30.3
2022-08-07T14:36:43.613Z,30.5
2022-08-07T14:37:59.849Z,30.6
2022-08-07T14:39:16.082Z,30.7
2022-08-07T14:40:32.340Z,30.5
2022-08-07T14:41:48.559Z,30.1
2022-08-07T14:43:04.815Z,29.8
2022-08-07T14:44:21.047Z,29.6
2022-08-07T14:45:36.309Z,29.3
2022-08-07T14:46:52.535Z,29.2
2022-08-07T14:48:08.775Z,29.5
2022-08-07T14:49:25.031Z,30
2022-08-07T14:50:41.255Z,30.2
2022-08-07T14:51:57.509Z,30.3
2022-08-07T14:53:13.741Z,30.5
2022-08-07T14:54:29.992Z,30.6
2022-08-07T14:55:46.217Z,30.7
2022-08-07T14:57:02.467Z,30.9
2022-08-07T14:58:18.710Z,31
2022-08-07T14:59:34.940Z,30.9
2022-08-07T15:00:51.181Z,30.9
2022-08-07T15:02:06.444Z,31
2022-08-07T15:03:22.671Z,31
2022-08-07T15:04:38.906Z,30.9
2022-08-07T15:05:55.147Z,30.7
2022-08-07T15:07:11.397Z,30.5
2022-08-07T15:08:27.635Z,30.1
2022-08-07T15:09:43.867Z,30
2022-08-07T15:11:00.115Z,30.1
2022-08-07T15:12:16.362Z,30.2
2022-08-07T15:13:32.586Z,30.4
2022-08-07T15:14:48.836Z,30.7
2022-08-07T15:16:05.066Z,31
2022-08-07T15:17:21.317Z,31
2022-08-07T15:18:36.564Z,31
2022-08-07T15:19:52.800Z,31
2022-08-07T15:21:09.042Z,30.9
2022-08-07T15:22:25.296Z,30.9
2022-08-07T15:23:41.518Z,30.8
2022-08-07T15:24:57.775Z,30.8
2022-08-07T15:26:14.011Z,30.9
2022-08-07T15:27:30.252Z,31
2022-08-07T15:28:46.497Z,31
2022-08-07T15:30:02.726Z,30.9
2022-08-07T15:31:18.955Z,30.1
2022-08-07T15:32:35.194Z,29.8
2022-08-07T15:33:51.453Z,30
2022-08-07T15:35:06.709Z,30.2
2022-08-07T15:36:22.943Z,30.5
2022-08-07T15:37:39.172Z,30.5
2022-08-07T15:38:55.425Z,30.7
2022-08-07T15:40:11.662Z,31
2022-08-07T15:41:27.000Z,31.2
2022-08-07T15:42:44.142Z,31
2022-08-07T15:44:00.364Z,31
2022-08-07T15:45:16.620Z,30.9
2022-08-07T15:46:32.845Z,31
2022-08-07T15:47:49.082Z,31.2
2022-08-07T15:49:05.324Z,31.3
2022-08-07T15:50:21.563Z,31.5
2022-08-07T15:51:36.828Z,31.6
2022-08-07T15:52:53.064Z,31.6
2022-08-07T15:54:09.297Z,31.7
2022-08-07T15:55:25.546Z,31.5
2022-08-07T15:56:41.791Z,31.6
2022-08-07T15:57:58.018Z,31.6
2022-08-07T15:59:14.271Z,31.5
2022-08-07T16:00:30.506Z,31.3
2022-08-07T16:01:46.744Z,31.3
2022-08-07T16:03:02.990Z,31.3
2022-08-07T16:04:19.221Z,31.3
2022-08-07T16:05:35.468Z,31.5
2022-08-07T16:06:51.707Z,31.5
2022-08-07T16:08:06.948Z,31.6
2022-08-07T16:09:23.192Z,31.5
2022-08-07T16:10:39.438Z,31.5
2022-08-07T16:11:55.672Z,31.6
2022-08-07T16:13:11.905Z,31.8
2022-08-07T16:14:28.145Z,31.8
2022-08-07T16:15:44.402Z,31.8
2022-08-07T16:17:00.641Z,31.8
2022-08-07T16:18:16.869Z,31.8
2022-08-07T16:19:33.112Z,31.7
2022-08-07T16:20:49.347Z,31.4
2022-08-07T16:22:05.591Z,31.3
2022-08-07T16:23:21.834Z,30.8
2022-08-07T16:24:37.098Z,30.6
2022-08-07T16:25:53.328Z,30.7
2022-08-07T16:27:09.572Z,30.8
2022-08-07T16:28:25.793Z,30.9
2022-08-07T16:29:42.038Z,31.1
2022-08-07T16:30:58.272Z,30.9
2022-08-07T16:32:14.518Z,30.4
2022-08-07T16:33:30.764Z,29.7
2022-08-07T16:34:46.994Z,29.5
2022-08-07T16:36:03.239Z,29.2
2022-08-07T16:37:19.474Z,29.5
2022-08-07T16:38:35.719Z,29.9
2022-08-07T16:39:51.959Z,30.2
2022-08-07T16:41:07.213Z,30.1
2022-08-07T16:42:23.453Z,30
2022-08-07T16:43:39.691Z,30.3
2022-08-07T16:44:55.936Z,30.4
2022-08-07T16:46:12.179Z,30.5
2022-08-07T16:47:28.408Z,30.5
2022-08-07T16:48:44.651Z,30.7
2022-08-07T16:50:00.895Z,30.7
2022-08-07T16:51:17.131Z,30.7
2022-08-07T16:53:49.598Z,30.9
2022-08-07T16:55:05.840Z,30.8
2022-08-07T16:56:22.079Z,30.8
2022-08-07T16:57:37.353Z,30.9
2022-08-07T16:58:53.574Z,31
2022-08-07T17:00:09.809Z,31.2
2022-08-07T17:01:26.051Z,31
2022-08-07T17:02:42.299Z,30.7
2022-08-07T17:03:58.534Z,30.7
2022-08-07T17:05:14.777Z,30.6
2022-08-07T17:06:31.018Z,30.7
2022-08-07T17:07:47.246Z,30.5
2022-08-07T17:09:03.501Z,30.3